Aeroporto :
LOGIN :

Iscrizione | Disclaimer

   EN    FR    IT 

 










Sommario :    VFR   VFR Marginale   IFR   IFR Intensivo   IFR Molto Intensivo
Visibilità : 
Base nubi : 
>= 8 km
>= 3000ft
5 / 8 km
1000 / 3000 ft
1500m / 5 km
500 / 1000 ft
800 / 1500m
200 / 500 ft
< 800m
< 200 ft
Simboli :   Temporali  Nebbia  Neve Forte  Precipitazioni Forti  Vento > 20 kt
SIGMETs :   Varie  Temporali  Ghiacco  Turbolenza  Onda orograficha  Ceneri Vulcaniche






- Altitudine del aeroporto : 161 ft


LRTZ - Tuzla Romania

ULTIMO METAR :
  • 221700Z 07004KT 9999 FEW200 19/10 Q1019 BLU BLU

METARs OBSOLETI :
  • 221600Z 06004KT 9999 SKC 20/09 Q1019 BLU BLU
  • 221500Z 07008KT 9999 SKC 21/10 Q1020 BLU BLU

TAF TAF LRTZ
Valido dal 22 a 18 ore il 23 a 18 ore UTC


221700Z 2218/2318 09008KT 9999 SKC
PROB40
TEMPO 2301/2305 VRB03KT 4000 BR SCT007



MetMap, La meteo Aeronautica in un colpo d'occhio ! - Copyright ORBIFLY Dicembre 2007 - Disclaimer

ORBIFLY MET'MAP TEAM :

Programmazione e sviluppo : Alexandra Zaïnal
Concezione : Baudouin d'Aumeries
Aiuto per la programmazione : Marc-Olivier Méhu
Supporto tecnico e logistico : Manuel Goepfert
Aiuto per la traduzione : Arnaldo La Scala

Contatto : metmap@orbifly.com




FONTI E CREDITI :

   NOAA